createdAt,value
2022-07-31T00:01:21.387Z,94604.81
2022-07-31T00:03:48.035Z,94609.97
2022-07-31T00:06:14.787Z,94606.78
2022-07-31T00:08:41.365Z,94607.72
2022-07-31T00:11:11.624Z,94610.06
2022-07-31T00:13:57.474Z,94611.63
2022-07-31T00:16:25.656Z,94606.53
2022-07-31T00:18:52.465Z,94614.63
2022-07-31T00:21:19.191Z,94608.31
2022-07-31T00:23:45.776Z,94605.09
2022-07-31T00:26:12.419Z,94603.75
2022-07-31T00:28:39.159Z,94603.31
2022-07-31T00:31:05.755Z,94596.88
2022-07-31T00:33:32.380Z,94601.09
2022-07-31T00:35:59.023Z,94615.19
2022-07-31T00:38:27.580Z,94604.84
2022-07-31T00:40:54.816Z,94603.63
2022-07-31T00:43:21.944Z,94595.09
2022-07-31T00:45:51.901Z,94600.50
2022-07-31T00:48:26.204Z,94598.34
2022-07-31T00:50:54.995Z,94597.16
2022-07-31T00:53:21.599Z,94590.38
2022-07-31T00:55:51.930Z,94592.69
2022-07-31T00:58:20.124Z,94594.25
2022-07-31T01:00:47.378Z,94592.34
2022-07-31T01:03:14.635Z,94594.25
2022-07-31T01:05:41.912Z,94595.66
2022-07-31T01:08:08.732Z,94588.69
2022-07-31T01:10:44.136Z,94590.25
2022-07-31T01:13:20.552Z,94599.84
2022-07-31T01:15:48.123Z,94595.19
2022-07-31T01:18:17.377Z,94601.56
2022-07-31T01:20:46.875Z,94597.72
2022-07-31T01:23:17.790Z,94602.50
2022-07-31T01:26:35.436Z,94588.75
2022-07-31T01:29:22.489Z,94590.75
2022-07-31T01:32:01.403Z,94592.16
2022-07-31T01:34:49.958Z,94585.50
2022-07-31T01:37:23.872Z,94582.41
2022-07-31T01:39:54.705Z,94582.75
2022-07-31T01:42:23.176Z,94582.56
2022-07-31T01:44:54.536Z,94585.19
2022-07-31T01:47:24.381Z,94590.00
2022-07-31T01:49:53.720Z,94576.84
2022-07-31T01:52:27.937Z,94587.66
2022-07-31T01:54:55.624Z,94574.53
2022-07-31T01:57:24.658Z,94580.09
2022-07-31T01:59:57.188Z,94588.00
2022-07-31T02:02:49.452Z,94580.41
2022-07-31T02:05:19.434Z,94580.09
2022-07-31T02:07:47.861Z,94585.66
2022-07-31T02:10:16.546Z,94581.19
2022-07-31T02:12:45.017Z,94583.03
2022-07-31T02:15:14.355Z,94579.00
2022-07-31T02:17:46.249Z,94578.72
2022-07-31T02:20:20.166Z,94577.16
2022-07-31T02:22:48.982Z,94581.63
2022-07-31T02:25:15.714Z,94574.84
2022-07-31T02:27:53.922Z,94584.59
2022-07-31T02:30:27.805Z,94576.25
2022-07-31T02:33:20.277Z,94575.31
2022-07-31T02:35:54.011Z,94568.84
2022-07-31T02:38:23.992Z,94571.47
2022-07-31T02:40:57.907Z,94572.88
2022-07-31T02:43:26.767Z,94569.66
2022-07-31T02:45:57.482Z,94582.97
2022-07-31T02:48:26.056Z,94578.31
2022-07-31T02:50:55.724Z,94576.78
2022-07-31T02:53:22.496Z,94578.50
2022-07-31T02:55:53.650Z,94579.72
2022-07-31T02:58:20.371Z,94570.13
2022-07-31T03:00:47.473Z,94570.47
2022-07-31T03:03:15.355Z,94574.94
2022-07-31T03:05:42.493Z,94569.84
2022-07-31T03:08:09.273Z,94575.56
2022-07-31T03:10:39.553Z,94572.63
2022-07-31T03:13:07.048Z,94575.38
2022-07-31T03:15:35.150Z,94570.63
2022-07-31T03:18:01.857Z,94573.06
2022-07-31T03:20:40.840Z,94576.16
2022-07-31T03:23:11.289Z,94576.47
2022-07-31T03:25:50.146Z,94570.75
2022-07-31T03:28:19.342Z,94565.53
2022-07-31T03:30:50.361Z,94563.81
2022-07-31T03:33:17.161Z,94571.06
2022-07-31T03:35:44.545Z,94570.63
2022-07-31T03:38:39.155Z,94576.94
2022-07-31T03:41:01.153Z,94569.69
2022-07-31T03:43:30.652Z,94560.28
2022-07-31T03:46:15.542Z,94563.97
2022-07-31T03:48:42.306Z,94559.50
2022-07-31T03:51:09.409Z,94559.50
2022-07-31T03:53:36.470Z,94562.91
2022-07-31T03:56:06.448Z,94558.41
2022-07-31T03:58:34.052Z,94561.19
2022-07-31T04:01:04.675Z,94566.13
2022-07-31T04:03:35.332Z,94557.47
2022-07-31T04:06:23.001Z,94565.53
2022-07-31T04:08:49.649Z,94554.72
2022-07-31T04:11:16.404Z,94565.06
2022-07-31T04:13:43.191Z,94568.91
2022-07-31T04:16:09.793Z,94554.69
2022-07-31T04:18:36.811Z,94559.00
2022-07-31T04:21:03.510Z,94570.00
2022-07-31T04:23:32.612Z,94572.28
2022-07-31T04:26:19.860Z,94574.31
2022-07-31T04:28:58.756Z,94580.81
2022-07-31T04:31:25.831Z,94575.13
2022-07-31T04:33:56.465Z,94579.41
2022-07-31T04:36:30.274Z,94582.97
2022-07-31T04:39:00.490Z,94584.38
2022-07-31T04:41:28.251Z,94583.09
2022-07-31T04:43:55.191Z,94584.78
2022-07-31T04:46:21.931Z,94587.69
2022-07-31T04:48:49.229Z,94584.59
2022-07-31T04:51:20.864Z,94582.41
2022-07-31T04:53:50.183Z,94570.66
2022-07-31T04:56:42.115Z,94570.81
2022-07-31T04:59:14.281Z,94568.63
2022-07-31T05:01:45.064Z,94576.69
2022-07-31T05:04:14.445Z,94568.91
2022-07-31T05:06:42.538Z,94569.03
2022-07-31T05:09:18.453Z,94569.19
2022-07-31T05:11:47.119Z,94569.47
2022-07-31T05:14:16.650Z,94580.56
2022-07-31T05:16:43.883Z,94578.53
2022-07-31T05:19:13.796Z,94577.41
2022-07-31T05:22:02.463Z,94581.31
2022-07-31T05:24:48.077Z,94582.38
2022-07-31T05:27:14.729Z,94584.03
2022-07-31T05:29:42.433Z,94591.88
2022-07-31T05:32:10.142Z,94592.28
2022-07-31T05:34:37.618Z,94580.72
2022-07-31T05:37:05.009Z,94588.06
2022-07-31T05:39:34.712Z,94590.88
2022-07-31T05:42:19.625Z,94585.53
2022-07-31T05:45:04.737Z,94585.94
2022-07-31T05:47:40.901Z,94585.44
2022-07-31T05:50:10.186Z,94593.38
2022-07-31T05:52:37.604Z,94585.13
2022-07-31T05:55:30.330Z,94588.34
2022-07-31T05:58:17.615Z,94587.00
2022-07-31T06:00:49.761Z,94590.50
2022-07-31T06:03:16.918Z,94596.88
2022-07-31T06:06:05.121Z,94588.59
2022-07-31T06:08:32.120Z,94587.38
2022-07-31T06:10:58.989Z,94587.06
2022-07-31T06:13:27.512Z,94583.97
2022-07-31T06:15:56.114Z,94590.84
2022-07-31T06:18:23.439Z,94594.19
2022-07-31T06:20:51.431Z,94596.19
2022-07-31T06:23:22.903Z,94594.84
2022-07-31T06:26:03.690Z,94590.91
2022-07-31T06:28:46.412Z,94590.50
2022-07-31T06:31:21.242Z,94586.75
2022-07-31T06:33:49.484Z,94593.41
2022-07-31T06:36:18.670Z,94595.94
2022-07-31T06:38:56.112Z,94608.00
2022-07-31T06:41:46.758Z,94592.03
2022-07-31T06:44:29.011Z,94604.06
2022-07-31T06:47:16.049Z,94603.13
2022-07-31T06:50:01.658Z,94601.72
2022-07-31T06:52:33.880Z,94606.41
2022-07-31T06:55:01.415Z,94601.25
2022-07-31T06:57:28.051Z,94600.28
2022-07-31T06:59:54.787Z,94603.16
2022-07-31T07:02:22.059Z,94607.16
2022-07-31T07:05:04.925Z,94611.84
2022-07-31T07:07:35.236Z,94601.66
2022-07-31T07:10:02.128Z,94605.97
2022-07-31T07:12:47.519Z,94602.63
2022-07-31T07:15:14.642Z,94601.66
2022-07-31T07:17:42.065Z,94605.88
2022-07-31T07:20:14.494Z,94601.63
2022-07-31T07:22:41.226Z,94603.81
2022-07-31T07:25:08.642Z,94595.63
2022-07-31T07:27:35.361Z,94592.03
2022-07-31T07:30:02.998Z,94599.66
2022-07-31T07:32:29.712Z,94587.34
2022-07-31T07:35:00.087Z,94593.25
2022-07-31T07:37:56.708Z,94587.13
2022-07-31T07:40:25.080Z,94577.81
2022-07-31T07:42:52.492Z,94585.63
2022-07-31T07:45:19.282Z,94584.50
2022-07-31T07:48:05.418Z,94574.63
2022-07-31T07:50:41.662Z,94583.47
2022-07-31T07:53:20.244Z,94582.78
2022-07-31T07:56:18.739Z,94577.84
2022-07-31T07:59:05.579Z,94576.66
2022-07-31T08:02:00.836Z,94581.13
2022-07-31T08:04:30.205Z,94589.09
2022-07-31T08:06:57.999Z,94592.06
2022-07-31T08:09:28.638Z,94580.66
2022-07-31T08:12:13.914Z,94580.97
2022-07-31T08:15:09.812Z,94586.63
2022-07-31T08:18:14.590Z,94592.06
2022-07-31T08:20:41.348Z,94587.59
2022-07-31T08:23:08.031Z,94595.63
2022-07-31T08:25:34.743Z,94585.50
2022-07-31T08:28:03.124Z,94592.13
2022-07-31T08:30:32.699Z,94591.56
2022-07-31T08:32:59.732Z,94588.63
2022-07-31T08:35:50.951Z,94589.09
2022-07-31T08:38:19.771Z,94583.81
2022-07-31T08:41:25.110Z,94584.59
2022-07-31T08:44:01.472Z,94587.69
2022-07-31T08:46:36.285Z,94581.75
2022-07-31T08:49:04.026Z,94582.72
2022-07-31T08:51:50.512Z,94586.28
2022-07-31T08:54:51.026Z,94584.44
2022-07-31T08:57:18.141Z,94579.88
2022-07-31T08:59:45.188Z,94575.31
2022-07-31T09:02:13.145Z,94585.22
2022-07-31T09:04:57.144Z,94586.78
2022-07-31T09:07:24.069Z,94581.44
2022-07-31T09:09:51.506Z,94585.38
2022-07-31T09:12:33.407Z,94575.13
2022-07-31T09:15:05.064Z,94579.38
2022-07-31T09:17:34.668Z,94578.63
2022-07-31T09:20:02.344Z,94583.16
2022-07-31T09:22:33.894Z,94583.13
2022-07-31T09:25:12.861Z,94582.75
2022-07-31T09:27:40.585Z,94582.31
2022-07-31T09:30:08.866Z,94579.94
2022-07-31T09:32:54.246Z,94582.16
2022-07-31T09:35:39.913Z,94576.06
2022-07-31T09:38:08.724Z,94579.13
2022-07-31T09:40:57.142Z,94582.63
2022-07-31T09:44:00.479Z,94576.97
2022-07-31T09:46:41.012Z,94589.25
2022-07-31T09:49:08.624Z,94591.88
2022-07-31T09:51:45.420Z,94585.72
2022-07-31T09:54:23.258Z,94587.59
2022-07-31T09:57:13.254Z,94580.72
2022-07-31T09:59:55.746Z,94582.69
2022-07-31T10:02:25.593Z,94592.25
2022-07-31T10:04:55.061Z,94588.81
2022-07-31T10:07:31.993Z,94576.25
2022-07-31T10:10:08.943Z,94581.66
2022-07-31T10:12:49.653Z,94579.00
2022-07-31T10:15:19.116Z,94572.91
2022-07-31T10:17:53.010Z,94569.91
2022-07-31T10:20:35.773Z,94573.38
2022-07-31T10:23:16.645Z,94564.97
2022-07-31T10:26:04.977Z,94574.88
2022-07-31T10:28:35.592Z,94568.03
2022-07-31T10:31:03.809Z,94562.75
2022-07-31T10:33:46.966Z,94559.00
2022-07-31T10:36:38.863Z,94551.41
2022-07-31T10:39:42.098Z,94548.03
2022-07-31T10:42:35.624Z,94554.53
2022-07-31T10:45:07.185Z,94556.78
2022-07-31T10:47:48.051Z,94541.50
2022-07-31T10:50:34.555Z,94554.47
2022-07-31T10:53:12.278Z,94556.41
2022-07-31T10:56:17.573Z,94544.22
2022-07-31T10:58:59.622Z,94549.53
2022-07-31T11:01:53.028Z,94550.22
2022-07-31T11:04:42.123Z,94545.59
2022-07-31T11:07:28.539Z,94541.00
2022-07-31T11:10:10.763Z,94550.19
2022-07-31T11:13:11.160Z,94539.03
2022-07-31T11:16:06.378Z,94553.50
2022-07-31T11:19:03.957Z,94539.34
2022-07-31T11:21:38.990Z,94557.72
2022-07-31T11:24:19.354Z,94550.09
2022-07-31T11:26:52.945Z,94547.41
2022-07-31T11:30:01.809Z,94538.16
2022-07-31T11:32:22.817Z,94538.97
2022-07-31T11:34:54.938Z,94543.59
2022-07-31T11:37:43.341Z,94531.03
2022-07-31T11:40:14.017Z,94530.31
2022-07-31T11:42:47.019Z,94521.91
2022-07-31T11:45:17.554Z,94533.00
2022-07-31T11:48:12.433Z,94526.09
2022-07-31T11:50:43.110Z,94517.97
2022-07-31T11:53:10.720Z,94522.13
2022-07-31T11:55:56.557Z,94515.25
2022-07-31T11:58:25.519Z,94506.44
2022-07-31T12:00:58.069Z,94514.38
2022-07-31T12:03:30.093Z,94494.94
2022-07-31T12:05:57.203Z,94506.09
2022-07-31T12:08:25.357Z,94492.78
2022-07-31T12:10:54.113Z,94497.00
2022-07-31T12:13:22.070Z,94492.06
2022-07-31T12:16:04.348Z,94493.97
2022-07-31T12:18:33.866Z,94488.97
2022-07-31T12:21:04.172Z,94486.34
2022-07-31T12:23:41.831Z,94491.38
2022-07-31T12:26:12.319Z,94484.53
2022-07-31T12:28:39.205Z,94479.56
2022-07-31T12:31:05.937Z,94484.91
2022-07-31T12:33:43.159Z,94480.31
2022-07-31T12:36:17.013Z,94488.72
2022-07-31T12:38:48.912Z,94473.81
2022-07-31T12:41:16.469Z,94471.47
2022-07-31T12:43:50.225Z,94461.41
2022-07-31T12:46:21.237Z,94467.47
2022-07-31T12:48:47.966Z,94466.13
2022-07-31T12:51:14.613Z,94454.69
2022-07-31T12:53:41.214Z,94455.94
2022-07-31T12:56:12.225Z,94463.69
2022-07-31T12:58:38.836Z,94457.25
2022-07-31T13:01:05.842Z,94458.00
2022-07-31T13:03:38.827Z,94457.47
2022-07-31T13:06:13.706Z,94452.38
2022-07-31T13:08:40.773Z,94455.72
2022-07-31T13:11:07.415Z,94440.22
2022-07-31T13:13:33.993Z,94433.13
2022-07-31T13:16:00.679Z,94444.19
2022-07-31T13:18:27.367Z,94428.47
2022-07-31T13:20:54.013Z,94432.97
2022-07-31T13:23:21.487Z,94437.81
2022-07-31T13:25:48.160Z,94432.13
2022-07-31T13:28:14.794Z,94430.44
2022-07-31T13:30:41.651Z,94432.19
2022-07-31T13:33:08.436Z,94426.88
2022-07-31T13:35:35.107Z,94435.44
2022-07-31T13:38:01.815Z,94420.16
2022-07-31T13:40:47.033Z,94419.66
2022-07-31T13:43:14.040Z,94409.44
2022-07-31T13:45:40.635Z,94415.59
2022-07-31T13:48:09.610Z,94414.88
2022-07-31T13:50:40.349Z,94405.00
2022-07-31T13:53:07.499Z,94409.91
2022-07-31T13:55:34.461Z,94413.28
2022-07-31T13:58:01.701Z,94404.59
2022-07-31T14:00:29.463Z,94407.66
2022-07-31T14:02:57.069Z,94397.69
2022-07-31T14:05:26.655Z,94389.22
2022-07-31T14:07:55.079Z,94380.91
2022-07-31T14:10:22.306Z,94394.91
2022-07-31T14:12:49.177Z,94394.19
2022-07-31T14:15:17.848Z,94394.13
2022-07-31T14:17:44.513Z,94385.38
2022-07-31T14:20:12.127Z,94383.22
2022-07-31T14:22:38.925Z,94385.00
2022-07-31T14:25:05.647Z,94392.25
2022-07-31T14:27:32.457Z,94382.38
2022-07-31T14:29:59.141Z,94385.81
2022-07-31T14:32:25.872Z,94373.41
2022-07-31T14:34:52.890Z,94379.38
2022-07-31T14:37:20.615Z,94381.44
2022-07-31T14:39:47.689Z,94378.38
2022-07-31T14:42:14.537Z,94379.88
2022-07-31T14:44:42.476Z,94372.28
2022-07-31T14:47:11.119Z,94380.03
2022-07-31T14:50:07.046Z,94372.03
2022-07-31T14:52:26.588Z,94361.09
2022-07-31T14:54:53.842Z,94368.38
2022-07-31T14:57:22.338Z,94364.97
2022-07-31T14:59:49.964Z,94366.75
2022-07-31T15:02:21.841Z,94356.13
2022-07-31T15:04:49.387Z,94362.41
2022-07-31T15:07:34.817Z,94346.91
2022-07-31T15:10:07.443Z,94357.03
2022-07-31T15:12:34.234Z,94357.28
2022-07-31T15:15:01.416Z,94354.50
2022-07-31T15:17:28.614Z,94343.53
2022-07-31T15:19:55.382Z,94344.19
2022-07-31T15:22:22.080Z,94342.88
2022-07-31T15:24:50.133Z,94354.44
2022-07-31T15:27:18.506Z,94352.59
2022-07-31T15:30:00.615Z,94346.66
2022-07-31T15:32:32.387Z,94352.44
2022-07-31T15:34:59.128Z,94351.13
2022-07-31T15:37:25.971Z,94348.25
2022-07-31T15:40:03.902Z,94350.59
2022-07-31T15:42:31.978Z,94344.16
2022-07-31T15:44:58.814Z,94344.22
2022-07-31T15:47:25.878Z,94339.34
2022-07-31T15:49:52.595Z,94342.81
2022-07-31T15:52:19.808Z,94335.56
2022-07-31T15:54:47.086Z,94330.38
2022-07-31T15:57:14.689Z,94325.28
2022-07-31T15:59:41.886Z,94331.06
2022-07-31T16:02:11.613Z,94332.69
2022-07-31T16:04:48.578Z,94315.41
2022-07-31T16:08:28.944Z,94311.69
2022-07-31T16:10:15.751Z,94315.97
2022-07-31T16:12:46.612Z,94314.28
2022-07-31T16:15:14.117Z,94314.16
2022-07-31T16:17:41.321Z,94304.47
2022-07-31T16:20:13.493Z,94307.16
2022-07-31T16:23:03.178Z,94304.34
2022-07-31T16:25:35.074Z,94308.84
2022-07-31T16:28:03.793Z,94293.72
2022-07-31T16:30:31.477Z,94299.09
2022-07-31T16:32:58.441Z,94296.22
2022-07-31T16:35:28.596Z,94284.13
2022-07-31T16:37:55.517Z,94284.78
2022-07-31T16:40:29.324Z,94286.09
2022-07-31T16:43:51.096Z,94287.47
2022-07-31T16:45:51.122Z,94290.38
2022-07-31T16:48:18.119Z,94286.13
2022-07-31T16:50:47.412Z,94275.69
2022-07-31T16:54:10.073Z,94283.47
2022-07-31T16:56:08.165Z,94280.72
2022-07-31T16:58:35.066Z,94280.81
2022-07-31T17:01:03.945Z,94276.72
2022-07-31T17:04:00.507Z,94280.97
2022-07-31T17:06:18.724Z,94276.16
2022-07-31T17:09:16.597Z,94278.09
2022-07-31T17:11:51.145Z,94275.50
2022-07-31T17:14:19.998Z,94276.63
2022-07-31T17:16:49.260Z,94279.69
2022-07-31T17:19:41.413Z,94282.63
2022-07-31T17:22:08.413Z,94283.41
2022-07-31T17:24:38.980Z,94277.03
2022-07-31T17:27:08.479Z,94279.13
2022-07-31T17:29:36.145Z,94287.06
2022-07-31T17:32:02.999Z,94284.88
2022-07-31T17:34:30.469Z,94286.50
2022-07-31T17:36:57.084Z,94284.69
2022-07-31T17:39:26.203Z,94287.47
2022-07-31T17:41:56.797Z,94294.06
2022-07-31T17:44:23.412Z,94297.22
2022-07-31T17:46:51.438Z,94298.38
2022-07-31T17:49:19.603Z,94299.19
2022-07-31T17:51:57.794Z,94300.38
2022-07-31T17:54:27.928Z,94303.09
2022-07-31T17:56:54.580Z,94300.47
2022-07-31T17:59:21.264Z,94298.22
2022-07-31T18:01:51.757Z,94300.53
2022-07-31T18:04:21.072Z,94300.16
2022-07-31T18:06:51.451Z,94294.81
2022-07-31T18:09:24.069Z,94298.66
2022-07-31T18:11:52.491Z,94294.47
2022-07-31T18:14:20.150Z,94297.16
2022-07-31T18:16:47.293Z,94294.88
2022-07-31T18:19:15.179Z,94300.59
2022-07-31T18:21:42.328Z,94305.19
2022-07-31T18:24:11.535Z,94299.84
2022-07-31T18:26:38.498Z,94305.59
2022-07-31T18:29:06.245Z,94301.00
2022-07-31T18:31:35.201Z,94297.59
2022-07-31T18:34:04.854Z,94316.66
2022-07-31T18:36:34.284Z,94304.09
2022-07-31T18:39:01.634Z,94299.16
2022-07-31T18:41:28.590Z,94311.00
2022-07-31T18:43:58.507Z,94298.78
2022-07-31T18:46:28.218Z,94304.13
2022-07-31T18:48:56.664Z,94301.84
2022-07-31T18:51:28.002Z,94310.22
2022-07-31T18:53:55.560Z,94309.84
2022-07-31T18:56:24.735Z,94311.00
2022-07-31T18:58:52.615Z,94310.59
2022-07-31T19:01:20.370Z,94307.16
2022-07-31T19:03:47.202Z,94311.75
2022-07-31T19:06:13.969Z,94311.00
2022-07-31T19:08:40.824Z,94310.97
2022-07-31T19:11:07.449Z,94314.03
2022-07-31T19:13:34.914Z,94309.41
2022-07-31T19:16:01.519Z,94314.75
2022-07-31T19:18:29.138Z,94323.88
2022-07-31T19:21:19.066Z,94322.34
2022-07-31T19:23:45.949Z,94322.34
2022-07-31T19:26:12.804Z,94320.06
2022-07-31T19:28:40.174Z,94321.16
2022-07-31T19:31:07.449Z,94318.09
2022-07-31T19:33:34.595Z,94320.00
2022-07-31T19:36:03.113Z,94321.88
2022-07-31T19:38:31.667Z,94320.34
2022-07-31T19:40:58.482Z,94316.91
2022-07-31T19:43:25.112Z,94329.81
2022-07-31T19:46:10.530Z,94324.44
2022-07-31T19:48:41.219Z,94311.44
2022-07-31T19:51:08.335Z,94332.34
2022-07-31T19:53:35.000Z,94333.09
2022-07-31T19:56:05.635Z,94328.13
2022-07-31T19:58:36.613Z,94324.66
2022-07-31T20:01:05.318Z,94333.00
2022-07-31T20:03:32.122Z,94331.84
2022-07-31T20:05:58.861Z,94333.34
2022-07-31T20:08:25.636Z,94323.81
2022-07-31T20:10:52.580Z,94321.09
2022-07-31T20:13:19.648Z,94330.56
2022-07-31T20:15:51.417Z,94324.41
2022-07-31T20:18:28.317Z,94328.53
2022-07-31T20:20:57.353Z,94328.84
2022-07-31T20:23:25.027Z,94329.94
2022-07-31T20:25:51.634Z,94333.38
2022-07-31T20:28:18.290Z,94327.63
2022-07-31T20:30:44.917Z,94333.66
2022-07-31T20:33:13.216Z,94319.94
2022-07-31T20:35:48.718Z,94325.66
2022-07-31T20:38:21.560Z,94329.03
2022-07-31T20:40:54.207Z,94322.94
2022-07-31T20:43:26.898Z,94335.00
2022-07-31T20:45:57.999Z,94331.91
2022-07-31T20:48:32.281Z,94293.28
2022-07-31T20:51:00.898Z,94339.75
2022-07-31T20:53:28.743Z,94332.84
2022-07-31T20:55:56.192Z,94333.56
2022-07-31T20:58:24.104Z,94334.25
2022-07-31T21:00:52.899Z,94336.84
2022-07-31T21:03:20.009Z,94342.06
2022-07-31T21:05:47.473Z,94337.78
2022-07-31T21:08:14.197Z,94342.66
2022-07-31T21:10:40.913Z,94334.19
2022-07-31T21:13:07.645Z,94343.56
2022-07-31T21:15:43.190Z,94338.88
2022-07-31T21:18:16.532Z,94333.78
2022-07-31T21:20:51.810Z,94334.75
2022-07-31T21:23:22.192Z,94340.41
2022-07-31T21:25:49.563Z,94336.59
2022-07-31T21:28:16.439Z,94335.78
2022-07-31T21:30:43.236Z,94336.09
2022-07-31T21:33:10.581Z,94327.63
2022-07-31T21:35:39.756Z,94329.56
2022-07-31T21:38:10.250Z,94331.75
2022-07-31T21:40:38.947Z,94342.44
2022-07-31T21:43:06.030Z,94344.72
2022-07-31T21:45:38.435Z,94343.13
2022-07-31T21:48:19.010Z,94340.03
2022-07-31T21:50:46.791Z,94349.03
2022-07-31T21:53:14.145Z,94342.09
2022-07-31T21:55:41.083Z,94344.34
2022-07-31T21:58:09.119Z,94351.78
2022-07-31T22:00:35.906Z,94352.69
2022-07-31T22:03:03.258Z,94354.75
2022-07-31T22:05:48.861Z,94367.75
2022-07-31T22:08:15.880Z,94361.31
2022-07-31T22:10:42.748Z,94365.56
2022-07-31T22:13:09.493Z,94366.88
2022-07-31T22:15:56.979Z,94369.81
2022-07-31T22:18:23.136Z,94364.09
2022-07-31T22:20:54.064Z,94367.47
2022-07-31T22:23:21.149Z,94365.06
2022-07-31T22:25:49.513Z,94372.59
2022-07-31T22:28:20.937Z,94361.09
2022-07-31T22:30:48.046Z,94368.84
2022-07-31T22:33:14.872Z,94376.59
2022-07-31T22:35:42.022Z,94375.94
2022-07-31T22:38:11.084Z,94357.84
2022-07-31T22:40:37.907Z,94377.72
2022-07-31T22:43:47.284Z,94369.47
2022-07-31T22:45:53.204Z,94369.56
2022-07-31T22:48:21.824Z,94371.84
2022-07-31T22:50:49.283Z,94366.53
2022-07-31T22:53:15.989Z,94367.38
2022-07-31T22:55:42.660Z,94362.72
2022-07-31T22:58:11.364Z,94367.69
2022-07-31T23:00:38.534Z,94367.69
2022-07-31T23:03:05.137Z,94374.56
2022-07-31T23:06:28.165Z,94378.00
2022-07-31T23:08:18.440Z,94377.63
2022-07-31T23:10:45.034Z,94378.00
2022-07-31T23:13:11.627Z,94376.44
2022-07-31T23:15:38.204Z,94381.34
2022-07-31T23:18:04.859Z,94383.56
2022-07-31T23:20:31.520Z,94380.16
2022-07-31T23:22:58.238Z,94385.75
2022-07-31T23:25:24.813Z,94384.84
2022-07-31T23:27:51.414Z,94382.78
2022-07-31T23:30:18.048Z,94384.16
2022-07-31T23:32:44.606Z,94381.44
2022-07-31T23:35:11.243Z,94375.66
2022-07-31T23:37:37.894Z,94377.81
2022-07-31T23:40:05.049Z,94372.38
2022-07-31T23:42:40.362Z,94373.75
2022-07-31T23:45:11.240Z,94373.97
2022-07-31T23:47:45.927Z,94372.28
2022-07-31T23:50:14.921Z,94371.78
2022-07-31T23:52:42.834Z,94365.56
2022-07-31T23:55:09.559Z,94367.88
2022-07-31T23:57:36.571Z,94369.41
